Time,TemperatureF,DewpointF,PressureIn,WindDirection,WindDirectionDegrees,WindSpeedMPH,WindSpeedGustMPH,Humidity,HourlyPrecipIn,Conditions,Clouds,dailyrainin,SoftwareType,DateUTC
2013-02-18 00:01:00,23.5,19.0,30.45,ENE,69,0.0,0.0,81,0.00,,,0.00,weatherlink.com 1.10,2013-02-18 05:01:00,
2013-02-18 00:15:00,22.9,18.0,30.46,ENE,69,0.0,0.0,81,0.00,,,0.00,weatherlink.com 1.10,2013-02-18 05:15:00,
2013-02-18 00:30:00,23.4,19.0,30.45,ENE,69,0.0,0.0,82,0.00,,,0.00,weatherlink.com 1.10,2013-02-18 05:30:00,
2013-02-18 00:46:00,23.2,18.0,30.45,ENE,70,0.0,0.0,79,0.00,,,0.00,weatherlink.com 1.10,2013-02-18 05:46:00,
2013-02-18 01:00:00,23.2,18.0,30.46,ENE,70,0.0,0.0,80,0.00,,,0.00,weatherlink.com 1.10,2013-02-18 06:00:00,
2013-02-18 01:15:00,22.4,18.0,30.46,ENE,69,0.0,0.0,82,0.00,,,0.00,weatherlink.com 1.10,2013-02-18 06:15:00,
2013-02-18 01:30:00,22.5,18.0,30.46,ENE,69,0.0,0.0,82,0.00,,,0.00,weatherlink.com 1.10,2013-02-18 06:30:00,
2013-02-18 01:46:00,22.4,18.0,30.46,ENE,70,0.0,0.0,83,0.00,,,0.00,weatherlink.com 1.10,2013-02-18 06:46:00,
2013-02-18 02:00:00,22.3,18.0,30.46,SW,217,0.0,0.0,84,0.00,,,0.00,weatherlink.com 1.10,2013-02-18 07:00:00,
2013-02-18 02:16:00,22.1,18.0,30.46,SE,124,0.0,0.0,84,0.00,,,0.00,weatherlink.com 1.10,2013-02-18 07:16:00,
2013-02-18 02:31:00,21.9,18.0,30.47,ESE,121,0.0,0.0,85,0.00,,,0.00,weatherlink.com 1.10,2013-02-18 07:31:00,
2013-02-18 02:46:00,21.8,18.0,30.46,NE,56,0.0,0.0,85,0.00,,,0.00,weatherlink.com 1.10,2013-02-18 07:46:00,
2013-02-18 03:01:00,21.5,18.0,30.46,ESE,106,0.0,0.0,85,0.00,,,0.00,weatherlink.com 1.10,2013-02-18 08:01:00,
2013-02-18 03:16:00,21.5,18.0,30.46,ENE,73,0.0,0.0,85,0.00,,,0.00,weatherlink.com 1.10,2013-02-18 08:16:00,
2013-02-18 03:31:00,21.4,18.0,30.47,ENE,60,0.0,0.0,85,0.00,,,0.00,weatherlink.com 1.10,2013-02-18 08:31:00,
2013-02-18 03:46:00,21.3,18.0,30.46,ENE,58,0.0,0.0,85,0.00,,,0.00,weatherlink.com 1.10,2013-02-18 08:46:00,
2013-02-18 04:01:00,20.9,17.0,30.47,ENE,57,0.0,0.0,86,0.00,,,0.00,weatherlink.com 1.10,2013-02-18 09:01:00,
2013-02-18 04:16:00,20.6,17.0,30.47,ENE,57,0.0,0.0,87,0.00,,,0.00,weatherlink.com 1.10,2013-02-18 09:16:00,
2013-02-18 04:31:00,20.8,18.0,30.47,NNW,330,0.0,0.0,87,0.00,,,0.00,weatherlink.com 1.10,2013-02-18 09:31:00,
2013-02-18 04:46:00,20.7,17.0,30.47,ENE,65,0.0,0.0,87,0.00,,,0.00,weatherlink.com 1.10,2013-02-18 09:46:00,
2013-02-18 05:01:00,20.8,17.0,30.48,WSW,242,0.0,0.0,86,0.00,,,0.00,weatherlink.com 1.10,2013-02-18 10:01:00,
2013-02-18 05:16:00,20.5,17.0,30.48,WSW,242,0.0,0.0,87,0.00,,,0.00,weatherlink.com 1.10,2013-02-18 10:16:00,
2013-02-18 05:31:00,20.4,17.0,30.48,WSW,242,0.0,0.0,87,0.00,,,0.00,weatherlink.com 1.10,2013-02-18 10:31:00,
2013-02-18 05:46:00,20.5,17.0,30.49,WSW,242,0.0,0.0,87,0.00,,,0.00,weatherlink.com 1.10,2013-02-18 10:46:00,
2013-02-18 06:01:00,20.5,17.0,30.49,WSW,242,0.0,0.0,87,0.00,,,0.00,weatherlink.com 1.10,2013-02-18 11:01:00,
2013-02-18 06:16:00,20.4,17.0,30.49,ENE,60,0.0,0.0,87,0.00,,,0.00,weatherlink.com 1.10,2013-02-18 11:16:00,
2013-02-18 06:31:00,20.4,17.0,30.49,WNW,288,0.0,0.0,87,0.00,,,0.00,weatherlink.com 1.10,2013-02-18 11:31:00,
2013-02-18 06:46:00,20.3,17.0,30.50,West,262,0.0,0.0,87,0.00,,,0.00,weatherlink.com 1.10,2013-02-18 11:46:00,
2013-02-18 07:01:00,20.6,18.0,30.50,SW,228,0.0,0.0,88,0.00,,,0.00,weatherlink.com 1.10,2013-02-18 12:01:00,
2013-02-18 07:16:00,20.4,17.0,30.50,WSW,242,0.0,1.0,88,0.00,,,0.00,weatherlink.com 1.10,2013-02-18 12:16:00,
2013-02-18 07:31:00,20.2,18.0,30.51,North,8,0.0,0.0,89,0.00,,,0.00,weatherlink.com 1.10,2013-02-18 12:31:00,
2013-02-18 07:46:00,20.7,18.0,30.51,East,80,0.0,1.0,88,0.00,,,0.00,weatherlink.com 1.10,2013-02-18 12:46:00,
2013-02-18 08:01:00,20.7,18.0,30.51,SW,236,0.0,1.0,88,0.00,,,0.00,weatherlink.com 1.10,2013-02-18 13:01:00,
2013-02-18 08:16:00,21.2,18.0,30.51,ENE,57,0.0,1.0,88,0.00,,,0.00,weatherlink.com 1.10,2013-02-18 13:16:00,
2013-02-18 08:31:00,22.1,19.0,30.52,WSW,249,0.0,2.0,87,0.00,,,0.00,weatherlink.com 1.10,2013-02-18 13:31:00,
2013-02-18 08:46:00,23.5,20.0,30.52,ENE,78,0.0,0.0,86,0.00,,,0.00,weatherlink.com 1.10,2013-02-18 13:46:00,
2013-02-18 09:01:00,25.4,21.0,30.52,ENE,71,0.0,1.0,82,0.00,,,0.00,weatherlink.com 1.10,2013-02-18 14:01:00,
2013-02-18 09:16:00,27.9,22.0,30.52,NE,54,2.0,3.0,77,0.00,,,0.00,weatherlink.com 1.10,2013-02-18 14:16:00,
2013-02-18 09:31:00,31.4,22.0,30.52,ENE,75,1.0,2.0,67,0.00,,,0.00,weatherlink.com 1.10,2013-02-18 14:31:00,
2013-02-18 09:47:00,34.2,23.0,30.52,ENE,76,0.0,2.0,64,0.00,,,0.00,weatherlink.com 1.10,2013-02-18 14:47:00,
2013-02-18 10:01:00,38.0,21.0,30.52,South,191,0.0,4.0,51,0.00,,,0.00,weatherlink.com 1.10,2013-02-18 15:01:00,
2013-02-18 10:17:00,40.3,22.0,30.52,WSW,245,0.0,5.0,49,0.00,,,0.00,weatherlink.com 1.10,2013-02-18 15:17:00,
2013-02-18 10:31:00,41.7,21.0,30.52,WNW,295,1.0,6.0,43,0.00,,,0.00,weatherlink.com 1.10,2013-02-18 15:31:00,
2013-02-18 10:47:00,42.6,22.0,30.52,SSE,153,0.0,7.0,44,0.00,,,0.00,weatherlink.com 1.10,2013-02-18 15:47:00,
2013-02-18 11:02:00,43.9,23.0,30.52,WSW,245,0.0,8.0,43,0.00,,,0.00,weatherlink.com 1.10,2013-02-18 16:02:00,
2013-02-18 11:17:00,44.8,23.0,30.51,West,264,0.0,10.0,42,0.00,,,0.00,weatherlink.com 1.10,2013-02-18 16:17:00,
2013-02-18 11:32:00,46.4,24.0,30.51,West,274,0.0,5.0,41,0.00,,,0.00,weatherlink.com 1.10,2013-02-18 16:32:00,
2013-02-18 11:47:00,47.0,24.0,30.50,WSW,255,0.0,8.0,40,0.00,,,0.00,weatherlink.com 1.10,2013-02-18 16:47:00,
2013-02-18 12:02:00,48.2,24.0,30.49,West,267,0.0,3.0,39,0.00,,,0.00,weatherlink.com 1.10,2013-02-18 17:02:00,
2013-02-18 12:17:00,48.6,24.0,30.48,WSW,246,0.0,5.0,39,0.00,,,0.00,weatherlink.com 1.10,2013-02-18 17:17:00,
2013-02-18 12:32:00,49.8,25.0,30.48,SSE,152,0.0,3.0,38,0.00,,,0.00,weatherlink.com 1.10,2013-02-18 17:32:00,
2013-02-18 13:02:00,51.8,27.0,30.46,WSW,256,4.0,4.0,38,0.00,,,0.00,weatherlink.com 1.10,2013-02-18 18:02:00,
2013-02-18 13:17:00,51.8,27.0,30.44,WNW,290,0.0,7.0,38,0.00,,,0.00,weatherlink.com 1.10,2013-02-18 18:17:00,
2013-02-18 13:32:00,52.8,27.0,30.43,WSW,239,2.0,5.0,37,0.00,,,0.00,weatherlink.com 1.10,2013-02-18 18:32:00,
2013-02-18 14:03:00,53.7,26.0,30.41,SSW,200,1.0,6.0,35,0.00,,,0.00,weatherlink.com 1.10,2013-02-18 19:03:00,
2013-02-18 14:18:00,55.3,29.0,30.40,WNW,284,2.0,7.0,36,0.00,,,0.00,weatherlink.com 1.10,2013-02-18 19:18:00,
2013-02-18 14:48:00,55.4,29.0,30.39,West,263,1.0,5.0,37,0.00,,,0.00,weatherlink.com 1.10,2013-02-18 19:48:00,
2013-02-18 15:02:00,55.5,30.0,30.38,SSW,212,0.0,9.0,38,0.00,,,0.00,weatherlink.com 1.10,2013-02-18 20:02:00,
2013-02-18 15:17:00,55.1,30.0,30.38,SW,236,0.0,5.0,38,0.00,,,0.00,weatherlink.com 1.10,2013-02-18 20:17:00,
2013-02-18 15:33:00,55.3,30.0,30.37,SE,127,0.0,6.0,38,0.00,,,0.00,weatherlink.com 1.10,2013-02-18 20:33:00,
2013-02-18 15:47:00,55.7,30.0,30.37,SW,224,1.0,4.0,38,0.00,,,0.00,weatherlink.com 1.10,2013-02-18 20:47:00,
2013-02-18 16:02:00,55.6,29.0,30.37,West,262,4.0,5.0,36,0.00,,,0.00,weatherlink.com 1.10,2013-02-18 21:02:00,
2013-02-18 16:17:00,53.9,28.0,30.37,WSW,251,0.0,12.0,37,0.00,,,0.00,weatherlink.com 1.10,2013-02-18 21:17:00,
2013-02-18 16:33:00,53.8,29.0,30.36,NW,314,0.0,7.0,38,0.00,,,0.00,weatherlink.com 1.10,2013-02-18 21:33:00,
2013-02-18 16:48:00,54.4,30.0,30.35,SW,231,0.0,4.0,39,0.00,,,0.00,weatherlink.com 1.10,2013-02-18 21:48:00,
2013-02-18 17:18:00,53.9,29.0,30.34,West,280,0.0,2.0,38,0.00,,,0.00,weatherlink.com 1.10,2013-02-18 22:18:00,
2013-02-18 17:48:00,50.4,29.0,30.33,WSW,256,0.0,2.0,44,0.00,,,0.00,weatherlink.com 1.10,2013-02-18 22:48:00,
2013-02-18 18:03:00,48.0,28.0,30.33,South,186,0.0,0.0,46,0.00,,,0.00,weatherlink.com 1.10,2013-02-18 23:03:00,
2013-02-18 18:18:00,46.9,27.0,30.33,ENE,77,0.0,0.0,46,0.00,,,0.00,weatherlink.com 1.10,2013-02-18 23:18:00,
2013-02-18 18:33:00,46.3,26.0,30.33,ENE,65,0.0,1.0,46,0.00,,,0.00,weatherlink.com 1.10,2013-02-18 23:33:00,
2013-02-18 18:48:00,45.8,27.0,30.32,ESE,108,0.0,3.0,48,0.00,,,0.00,weatherlink.com 1.10,2013-02-18 23:48:00,
2013-02-18 19:03:00,45.6,27.0,30.33,NW,322,0.0,1.0,48,0.00,,,0.00,weatherlink.com 1.10,2013-02-19 00:03:00,
2013-02-18 19:19:00,45.1,27.0,30.33,WSW,250,0.0,5.0,49,0.00,,,0.00,weatherlink.com 1.10,2013-02-19 00:19:00,
2013-02-18 19:33:00,44.8,27.0,30.32,WNW,293,0.0,5.0,50,0.00,,,0.00,weatherlink.com 1.10,2013-02-19 00:33:00,
2013-02-18 19:48:00,44.8,27.0,30.32,WSW,249,0.0,12.0,50,0.00,,,0.00,weatherlink.com 1.10,2013-02-19 00:48:00,
2013-02-18 20:03:00,44.2,27.0,30.32,West,277,0.0,0.0,51,0.00,,,0.00,weatherlink.com 1.10,2013-02-19 01:03:00,
2013-02-18 20:18:00,43.9,28.0,30.32,SW,215,0.0,6.0,53,0.00,,,0.00,weatherlink.com 1.10,2013-02-19 01:18:00,
2013-02-18 20:33:00,44.0,27.0,30.33,SW,231,0.0,2.0,52,0.00,,,0.00,weatherlink.com 1.10,2013-02-19 01:33:00,
2013-02-18 20:48:00,43.2,27.0,30.31,SW,225,0.0,1.0,53,0.00,,,0.00,weatherlink.com 1.10,2013-02-19 01:48:00,
2013-02-18 21:03:00,43.5,27.0,30.31,SSW,210,0.0,6.0,53,0.00,,,0.00,weatherlink.com 1.10,2013-02-19 02:03:00,
2013-02-18 21:18:00,43.5,27.0,30.30,ESE,120,0.0,7.0,53,0.00,,,0.00,weatherlink.com 1.10,2013-02-19 02:18:00,
2013-02-18 21:33:00,43.5,27.0,30.31,WNW,288,3.0,9.0,53,0.00,,,0.00,weatherlink.com 1.10,2013-02-19 02:33:00,
2013-02-18 21:48:00,43.6,27.0,30.31,SSW,211,0.0,11.0,53,0.00,,,0.00,weatherlink.com 1.10,2013-02-19 02:48:00,
2013-02-18 22:03:00,42.9,27.0,30.31,SSW,198,0.0,2.0,54,0.00,,,0.00,weatherlink.com 1.10,2013-02-19 03:03:00,
2013-02-18 22:18:00,42.2,27.0,30.29,South,173,0.0,1.0,56,0.00,,,0.00,weatherlink.com 1.10,2013-02-19 03:18:00,
2013-02-18 22:33:00,42.3,27.0,30.30,SSW,203,0.0,6.0,54,0.00,,,0.00,weatherlink.com 1.10,2013-02-19 03:33:00,
2013-02-18 22:48:00,43.1,27.0,30.29,West,269,0.0,9.0,54,0.00,,,0.00,weatherlink.com 1.10,2013-02-19 03:48:00,
2013-02-18 23:03:00,42.6,27.0,30.28,WSW,257,0.0,1.0,54,0.00,,,0.00,weatherlink.com 1.10,2013-02-19 04:03:00,
2013-02-18 23:18:00,42.2,26.0,30.28,SE,136,0.0,6.0,54,0.00,,,0.00,weatherlink.com 1.10,2013-02-19 04:18:00,
2013-02-18 23:33:00,42.9,26.0,30.27,WSW,239,4.0,9.0,51,0.00,,,0.00,weatherlink.com 1.10,2013-02-19 04:33:00,
2013-02-18 23:48:00,43.3,26.0,30.27,WSW,250,0.0,7.0,51,0.00,,,0.00,weatherlink.com 1.10,2013-02-19 04:48:00,